Time;durP1;ratioP1;P1;durP2;ratioP2;P2;SDS_P1;SDS_P2;PMS_P1;PMS_P2;Temp;Humidity;BMP_temperature;BMP_pressure;BME280_temperature;BME280_humidity;BME280_pressure;Samples;Min_cycle;Max_cycle;Signal;HPM_P1;HPM_P2
2023/08/03 00:00:50;;;;;;;0.40;0.20;;;;;;;20.57;77.18;98407.34;5012327;28;20426;-49
2023/08/03 00:03:17;;;;;;;0.40;0.30;;;;;;;20.39;77.84;98401.03;5012098;28;20452;-49
2023/08/03 00:05:43;;;;;;;0.40;0.20;;;;;;;20.39;78.45;98409.97;5012153;28;20455;-48
2023/08/03 00:08:10;;;;;;;0.40;0.20;;;;;;;20.35;78.47;98405.88;5012588;28;20952;-48
2023/08/03 00:10:37;;;;;;;0.40;0.20;;;;;;;20.28;78.99;98412.03;5003262;28;20456;-48
2023/08/03 00:13:04;;;;;;;0.40;0.20;;;;;;;20.20;79.04;98406.56;4996598;28;20464;-49
2023/08/03 00:15:30;;;;;;;0.40;0.20;;;;;;;20.27;78.99;98415.72;5009305;28;20513;-49
2023/08/03 00:17:57;;;;;;;0.40;0.20;;;;;;;20.36;78.70;98404.03;4996230;28;20492;-48
2023/08/03 00:20:23;;;;;;;0.40;0.20;;;;;;;20.29;78.57;98401.09;5009436;28;20455;-49
2023/08/03 00:22:49;;;;;;;0.40;0.20;;;;;;;20.25;79.04;98415.88;5015844;28;20452;-49
2023/08/03 00:25:16;;;;;;;0.40;0.20;;;;;;;20.24;78.81;98406.09;5015950;28;20433;-48
2023/08/03 00:27:42;;;;;;;0.40;0.20;;;;;;;20.37;77.88;98401.19;5015638;28;20424;-49
2023/08/03 00:30:09;;;;;;;0.40;0.20;;;;;;;20.36;77.93;98414.81;5015520;28;20460;-48
2023/08/03 00:32:36;;;;;;;0.40;0.20;;;;;;;20.28;78.22;98420.13;5015501;28;20486;-48
2023/08/03 00:35:02;;;;;;;0.40;0.20;;;;;;;20.21;77.73;98417.19;5028546;28;20418;-49
2023/08/03 00:37:29;;;;;;;0.40;0.20;;;;;;;20.31;78.06;98407.19;4996146;28;20434;-49
2023/08/03 00:39:55;;;;;;;0.40;0.20;;;;;;;20.25;78.15;98407.78;4998581;28;20472;-49
2023/08/03 00:42:22;;;;;;;0.40;0.20;;;;;;;20.15;78.44;98404.31;4996135;28;20804;-49
2023/08/03 00:44:48;;;;;;;0.40;0.20;;;;;;;20.20;78.54;98420.88;5008899;28;20804;-48
2023/08/03 00:47:15;;;;;;;0.40;0.20;;;;;;;20.20;78.15;98420.03;5015227;28;20459;-48
2023/08/03 00:49:41;;;;;;;0.40;0.20;;;;;;;20.23;78.09;98430.53;5015267;28;21007;-50
2023/08/03 00:52:08;;;;;;;0.40;0.20;;;;;;;20.16;78.25;98429.44;5015349;28;20426;-48
2023/08/03 00:54:36;;;;;;;0.40;0.20;;;;;;;20.16;78.13;98429.44;5002280;28;20540;-49
2023/08/03 00:57:03;;;;;;;0.40;0.20;;;;;;;20.16;78.32;98424.91;5015308;28;20514;-49
2023/08/03 00:59:29;;;;;;;0.40;0.20;;;;;;;19.99;78.79;98410.34;5015043;28;20471;-48
2023/08/03 01:01:56;;;;;;;0.40;0.20;;;;;;;19.94;79.16;98436.06;5014986;28;20452;-49
2023/08/03 01:04:22;;;;;;;0.40;0.20;;;;;;;19.95;79.48;98438.63;5014931;28;20502;-49
2023/08/03 01:06:50;;;;;;;0.40;0.20;;;;;;;19.85;79.58;98437.78;5015166;28;20466;-49
2023/08/03 01:09:17;;;;;;;0.40;0.20;;;;;;;19.80;80.15;98443.63;5014016;28;20566;-48
2023/08/03 01:11:45;;;;;;;0.40;0.20;;;;;;;19.65;81.34;98452.34;5003037;28;20485;-49
2023/08/03 01:14:12;;;;;;;0.40;0.20;;;;;;;19.68;81.61;98458.28;5014785;28;20536;-49
2023/08/03 01:16:39;;;;;;;0.50;0.20;;;;;;;19.65;82.00;98458.59;5015155;28;20458;-48
2023/08/03 01:19:08;;;;;;;0.40;0.20;;;;;;;19.58;82.70;98460.16;5014597;28;20514;-48
2023/08/03 01:21:37;;;;;;;0.40;0.20;;;;;;;19.46;83.60;98454.06;5014960;28;20445;-49
2023/08/03 01:24:03;;;;;;;0.40;0.20;;;;;;;19.49;84.17;98453.78;5014766;28;20459;-49
2023/08/03 01:26:30;;;;;;;0.40;0.20;;;;;;;19.49;84.94;98461.03;5014618;28;20543;-49
2023/08/03 01:28:56;;;;;;;0.50;0.20;;;;;;;19.56;83.88;98464.00;5014759;28;20579;-49
2023/08/03 01:31:22;;;;;;;0.40;0.20;;;;;;;19.57;83.59;98466.53;5014779;28;20543;-49
2023/08/03 01:33:49;;;;;;;0.40;0.20;;;;;;;19.43;84.32;98477.75;5017982;28;20812;-49
2023/08/03 01:36:16;;;;;;;0.40;0.20;;;;;;;19.48;84.59;98480.88;5014354;28;20454;-49
2023/08/03 01:38:42;;;;;;;0.40;0.20;;;;;;;19.46;85.52;98482.84;5007888;28;20504;-49
2023/08/03 01:41:09;;;;;;;0.50;0.20;;;;;;;19.12;87.95;98487.84;5004865;28;20514;-49
2023/08/03 01:43:35;;;;;;;0.40;0.20;;;;;;;19.21;88.09;98492.41;5014122;28;20879;-49
2023/08/03 01:46:02;;;;;;;0.40;0.20;;;;;;;19.05;89.77;98492.97;5014539;28;20429;-49
2023/08/03 01:48:28;;;;;;;0.50;0.20;;;;;;;18.99;90.34;98498.91;5014259;28;20440;-48
2023/08/03 01:50:54;;;;;;;0.40;0.20;;;;;;;18.92;91.26;98493.25;5014280;28;20507;-49
2023/08/03 01:53:21;;;;;;;0.40;0.20;;;;;;;18.84;92.44;98503.00;5014131;28;20449;-49
2023/08/03 01:55:48;;;;;;;0.40;0.20;;;;;;;18.86;92.67;98501.88;5014081;28;20812;-49
2023/08/03 01:58:14;;;;;;;0.40;0.20;;;;;;;18.88;93.02;98504.41;5013775;28;21025;-49
2023/08/03 02:00:41;;;;;;;0.40;0.20;;;;;;;18.94;93.20;98504.72;5014027;28;20954;-48
2023/08/03 02:03:07;;;;;;;0.40;0.20;;;;;;;18.85;93.21;98507.41;5013965;28;20950;-49
2023/08/03 02:05:34;;;;;;;0.40;0.20;;;;;;;18.78;94.12;98506.28;5014087;28;20520;-49
2023/08/03 02:08:01;;;;;;;0.50;0.20;;;;;;;18.72;94.75;98513.03;5013808;28;20423;-49
2023/08/03 02:10:27;;;;;;;0.50;0.20;;;;;;;18.70;94.55;98516.88;5002348;28;20532;-49
2023/08/03 02:12:53;;;;;;;0.50;0.20;;;;;;;18.74;94.54;98510.22;5012125;28;20917;-49
2023/08/03 02:15:20;;;;;;;0.40;0.20;;;;;;;18.75;94.61;98515.44;5013783;28;20937;-49
2023/08/03 02:17:46;;;;;;;0.40;0.20;;;;;;;18.79;94.50;98516.03;5013594;28;20427;-49
2023/08/03 02:20:13;;;;;;;0.40;0.20;;;;;;;18.62;95.54;98517.50;5013832;28;20430;-49
2023/08/03 02:22:40;;;;;;;0.40;0.20;;;;;;;18.61;96.00;98523.88;5013518;28;20481;-49
2023/08/03 02:25:07;;;;;;;0.50;0.20;;;;;;;18.59;95.97;98528.56;5013525;28;20526;-49
2023/08/03 02:27:33;;;;;;;0.40;0.20;;;;;;;18.70;96.00;98525.78;5013471;28;20427;-49
2023/08/03 02:29:59;;;;;;;0.40;0.30;;;;;;;18.57;96.88;98525.16;5013390;28;20502;-49
2023/08/03 02:32:27;;;;;;;0.40;0.30;;;;;;;18.74;96.51;98524.53;5012849;28;20901;-49
2023/08/03 02:34:54;;;;;;;0.40;0.20;;;;;;;18.63;97.20;98524.59;5025653;28;20515;-49
2023/08/03 02:37:20;;;;;;;0.50;0.20;;;;;;;18.54;98.16;98531.69;5001136;28;20452;-49
2023/08/03 02:39:47;;;;;;;0.40;0.20;;;;;;;18.54;98.69;98531.69;5000796;28;20463;-49
2023/08/03 02:42:13;;;;;;;0.40;0.20;;;;;;;18.56;99.13;98532.38;5012461;28;21001;-49
2023/08/03 02:44:40;;;;;;;0.40;0.20;;;;;;;18.30;100.00;98540.09;5013436;28;20423;-48
2023/08/03 02:47:07;;;;;;;0.40;0.20;;;;;;;18.25;100.00;98536.09;5013217;28;20539;-49
2023/08/03 02:49:34;;;;;;;0.50;0.30;;;;;;;18.07;100.00;98535.88;5013058;28;20939;-49
2023/08/03 02:52:00;;;;;;;0.40;0.20;;;;;;;18.06;100.00;98545.78;5012981;28;20491;-49
2023/08/03 02:54:26;;;;;;;0.40;0.20;;;;;;;18.02;100.00;98541.66;5013102;28;20452;-49
2023/08/03 02:56:53;;;;;;;0.40;0.20;;;;;;;18.01;100.00;98539.97;4993655;28;20486;-49
2023/08/03 02:59:19;;;;;;;0.40;0.20;;;;;;;17.91;100.00;98547.09;5006424;28;20899;-49
2023/08/03 03:01:46;;;;;;;0.40;0.20;;;;;;;18.03;100.00;98545.19;5013023;28;20433;-49
2023/08/03 03:04:13;;;;;;;0.40;0.20;;;;;;;17.89;100.00;98549.09;5013577;28;20455;-49
2023/08/03 03:06:39;;;;;;;0.40;0.20;;;;;;;17.94;100.00;98549.53;5012969;28;20830;-49
2023/08/03 03:09:05;;;;;;;0.40;0.20;;;;;;;17.73;100.00;98548.72;5012782;28;20492;-49
2023/08/03 03:11:32;;;;;;;0.40;0.20;;;;;;;17.62;100.00;98548.75;4999659;28;20480;-49
2023/08/03 03:13:58;;;;;;;0.40;0.20;;;;;;;17.64;100.00;98555.69;5012943;28;20448;-49
2023/08/03 03:16:28;;;;;;;0.40;0.20;;;;;;;17.79;100.00;98550.84;5012808;28;20459;-49
2023/08/03 03:18:54;;;;;;;0.40;0.20;;;;;;;17.87;100.00;98551.06;5012563;28;20584;-50
2023/08/03 03:21:21;;;;;;;0.40;0.20;;;;;;;17.81;100.00;98554.25;5012560;28;20820;-48
2023/08/03 03:23:47;;;;;;;0.40;0.20;;;;;;;17.88;100.00;98558.13;5012812;28;20527;-49
2023/08/03 03:26:14;;;;;;;0.40;0.20;;;;;;;17.89;100.00;98551.78;5012854;28;20459;-49
2023/08/03 03:28:41;;;;;;;0.40;0.20;;;;;;;17.87;100.00;98563.66;5012101;28;20496;-49
2023/08/03 03:31:08;;;;;;;0.40;0.20;;;;;;;17.91;100.00;98559.69;5012737;28;20433;-49
2023/08/03 03:33:34;;;;;;;0.40;0.20;;;;;;;17.94;100.00;98572.88;5013870;28;20930;-48
2023/08/03 03:36:01;;;;;;;0.40;0.20;;;;;;;17.93;100.00;98574.72;5016268;28;20445;-49
2023/08/03 03:38:27;;;;;;;0.40;0.20;;;;;;;17.92;100.00;98581.06;5005646;28;20496;-49
2023/08/03 03:40:54;;;;;;;0.40;0.20;;;;;;;18.00;100.00;98589.34;5001255;28;20453;-49
2023/08/03 03:43:20;;;;;;;0.40;0.20;;;;;;;17.99;100.00;98601.09;5013352;28;20452;-49
2023/08/03 03:45:46;;;;;;;0.40;0.20;;;;;;;18.01;99.71;98599.13;5016567;28;20993;-49
2023/08/03 03:48:13;;;;;;;0.40;0.20;;;;;;;17.93;99.89;98601.59;5016255;28;21064;-49
2023/08/03 03:50:40;;;;;;;0.40;0.20;;;;;;;18.14;99.36;98606.13;5016323;28;20514;-49
2023/08/03 03:53:06;;;;;;;0.40;0.20;;;;;;;18.00;99.46;98615.38;5016587;28;20453;-49
2023/08/03 03:55:33;;;;;;;0.40;0.20;;;;;;;17.82;100.00;98612.44;5016383;28;20972;-49
2023/08/03 03:58:00;;;;;;;0.40;0.20;;;;;;;17.94;99.49;98605.97;5016291;28;20982;-49
2023/08/03 04:00:27;;;;;;;0.40;0.20;;;;;;;17.91;99.93;98608.94;5016328;28;20445;-49
2023/08/03 04:02:53;;;;;;;0.40;0.20;;;;;;;17.97;99.99;98608.44;5016113;28;21012;-49
2023/08/03 04:05:20;;;;;;;0.40;0.20;;;;;;;17.88;99.95;98611.06;5016036;28;20491;-49
2023/08/03 04:07:47;;;;;;;0.40;0.20;;;;;;;17.93;100.00;98611.50;5016181;28;20452;-49
2023/08/03 04:10:13;;;;;;;0.40;0.20;;;;;;;18.10;98.27;98604.69;5006628;28;20496;-49
2023/08/03 04:12:39;;;;;;;0.40;0.20;;;;;;;18.19;97.15;98610.09;5012728;28;20448;-49
2023/08/03 04:15:06;;;;;;;0.40;0.20;;;;;;;18.29;96.82;98610.16;5016063;28;20536;-49
2023/08/03 04:17:33;;;;;;;0.40;0.20;;;;;;;18.36;96.29;98614.00;5015775;28;20926;-49
2023/08/03 04:20:00;;;;;;;0.40;0.20;;;;;;;18.46;95.94;98622.13;5016151;28;20464;-48
2023/08/03 04:22:26;;;;;;;0.40;0.20;;;;;;;18.63;94.68;98622.38;5016009;28;20423;-49
2023/08/03 04:24:53;;;;;;;0.40;0.20;;;;;;;18.51;94.55;98625.28;5015978;28;20456;-49
2023/08/03 04:27:19;;;;;;;0.40;0.20;;;;;;;18.42;94.63;98628.78;5015625;28;20481;-49
2023/08/03 04:29:45;;;;;;;0.40;0.20;;;;;;;18.45;94.38;98628.50;5015416;28;21068;-49
2023/08/03 04:32:12;;;;;;;0.40;0.20;;;;;;;18.38;95.12;98627.34;5015450;28;20540;-49
2023/08/03 04:34:38;;;;;;;0.40;0.20;;;;;;;18.49;94.27;98636.16;5025742;28;21008;-49
2023/08/03 04:37:05;;;;;;;0.40;0.20;;;;;;;18.38;94.60;98633.59;5005628;28;20535;-49
2023/08/03 04:39:31;;;;;;;0.60;0.60;;;;;;;18.25;94.50;98631.09;5005565;28;20548;-49
2023/08/03 04:41:58;;;;;;;0.40;0.20;;;;;;;18.46;94.30;98640.97;5012662;28;20824;-49
2023/08/03 04:44:24;;;;;;;0.40;0.30;;;;;;;18.44;94.27;98643.78;5015579;28;20448;-49
2023/08/03 04:46:51;;;;;;;0.40;0.20;;;;;;;18.48;94.16;98655.13;5015303;28;20467;-49
2023/08/03 04:49:17;;;;;;;0.40;0.20;;;;;;;18.39;95.28;98650.56;5015291;28;20474;-49
2023/08/03 04:51:43;;;;;;;0.40;0.20;;;;;;;18.52;95.20;98660.13;5015253;28;20540;-49
2023/08/03 04:54:13;;;;;;;0.40;0.20;;;;;;;18.47;94.74;98667.75;5014862;28;20455;-49
2023/08/03 04:56:39;;;;;;;0.40;0.20;;;;;;;18.43;94.87;98668.16;5015299;28;20535;-49
2023/08/03 04:59:06;;;;;;;0.40;0.20;;;;;;;18.46;94.88;98674.09;5015214;28;20514;-49
2023/08/03 05:01:33;;;;;;;0.40;0.20;;;;;;;18.43;94.31;98671.69;5014959;28;20448;-49
2023/08/03 05:04:02;;;;;;;0.40;0.20;;;;;;;18.32;95.08;98677.16;5015321;28;20509;-49
2023/08/03 05:06:29;;;;;;;0.40;0.20;;;;;;;18.29;94.68;98691.72;5014996;28;20481;-49
2023/08/03 05:08:56;;;;;;;0.40;0.20;;;;;;;18.57;94.67;98681.25;5014919;28;20474;-49
2023/08/03 05:11:22;;;;;;;0.40;0.20;;;;;;;18.43;94.59;98695.91;5001770;28;20543;-49
2023/08/03 05:13:49;;;;;;;0.40;0.20;;;;;;;18.54;94.03;98687.75;5014812;28;20459;-49
2023/08/03 05:16:22;;;;;;;0.40;0.20;;;;;;;18.65;93.12;98694.94;5015071;28;20530;-49
2023/08/03 05:18:48;;;;;;;0.40;0.20;;;;;;;18.60;93.41;98691.75;5014591;28;20443;-49
2023/08/03 05:21:15;;;;;;;0.40;0.20;;;;;;;18.69;92.65;98708.97;5014932;28;20511;-49
2023/08/03 05:23:42;;;;;;;0.40;0.20;;;;;;;18.40;93.55;98700.72;5014692;28;20453;-49
2023/08/03 05:26:08;;;;;;;0.40;0.20;;;;;;;18.50;93.08;98710.56;5014833;28;20526;-49
2023/08/03 05:28:34;;;;;;;0.40;0.20;;;;;;;18.59;93.16;98706.19;5014219;28;20476;-49
2023/08/03 05:31:01;;;;;;;0.40;0.20;;;;;;;18.52;92.87;98708.56;5014802;28;20494;-49
2023/08/03 05:33:27;;;;;;;0.40;0.20;;;;;;;18.63;92.35;98710.31;5014464;28;20459;-49
2023/08/03 05:35:54;;;;;;;0.40;0.20;;;;;;;18.54;92.54;98711.13;5020232;28;20460;-49
2023/08/03 05:38:20;;;;;;;0.40;0.20;;;;;;;18.43;92.86;98722.81;5008357;28;20472;-49
2023/08/03 05:40:47;;;;;;;0.40;0.20;;;;;;;18.52;92.81;98724.72;5002045;28;20922;-49
2023/08/03 05:43:14;;;;;;;0.40;0.20;;;;;;;18.61;92.20;98725.75;5014456;28;20514;-49
2023/08/03 05:45:43;;;;;;;0.40;0.20;;;;;;;18.56;92.84;98728.84;5014605;28;20818;-49
2023/08/03 05:48:13;;;;;;;0.40;0.20;;;;;;;18.59;92.49;98722.34;5014248;28;20472;-49
2023/08/03 05:50:44;;;;;;;0.40;0.20;;;;;;;18.58;91.95;98721.50;5014510;28;20488;-49
2023/08/03 05:53:11;;;;;;;0.40;0.20;;;;;;;18.50;92.33;98724.00;5014388;28;20431;-49
2023/08/03 05:55:39;;;;;;;0.40;0.20;;;;;;;18.66;91.93;98725.41;5014147;28;20555;-49
2023/08/03 05:58:08;;;;;;;0.40;0.20;;;;;;;18.63;91.75;98726.47;5014477;28;20449;-49
2023/08/03 06:00:34;;;;;;;0.40;0.20;;;;;;;18.55;91.69;98737.06;5014400;28;20445;-49
2023/08/03 06:03:01;;;;;;;0.40;0.20;;;;;;;18.54;91.91;98736.22;5014197;28;20452;-49
2023/08/03 06:05:43;;;;;;;0.40;0.20;;;;;;;18.51;91.67;98730.25;5013727;28;20452;-49
2023/08/03 06:08:15;;;;;;;0.40;0.20;;;;;;;18.76;91.07;98726.28;5013650;28;21007;-49
2023/08/03 06:10:47;;;;;;;0.40;0.20;;;;;;;18.65;91.19;98743.38;5000476;28;20945;-49
2023/08/03 06:13:16;;;;;;;0.40;0.20;;;;;;;18.73;90.76;98727.41;5013929;28;20445;-49
2023/08/03 06:15:45;;;;;;;0.40;0.20;;;;;;;18.76;91.51;98742.44;5013649;28;20961;-49
2023/08/03 06:18:14;;;;;;;0.40;0.20;;;;;;;18.78;90.61;98744.03;5013720;28;20454;-49
2023/08/03 06:20:45;;;;;;;0.40;0.20;;;;;;;18.86;91.13;98741.50;5013579;28;20476;-49
2023/08/03 06:23:18;;;;;;;0.40;0.20;;;;;;;18.75;91.03;98743.41;5013926;28;20855;-49
2023/08/03 06:25:50;;;;;;;0.40;0.20;;;;;;;19.00;90.04;98745.69;5013637;28;20426;-49
2023/08/03 06:28:19;;;;;;;0.40;0.20;;;;;;;18.76;90.23;98751.34;5013282;28;20453;-49
2023/08/03 06:30:47;;;;;;;0.40;0.20;;;;;;;18.91;90.05;98751.84;5013306;28;20807;-49
2023/08/03 06:33:16;;;;;;;0.40;0.20;;;;;;;18.86;90.03;98768.44;5013446;28;20471;-49
2023/08/03 06:35:44;;;;;;;0.40;0.20;;;;;;;18.87;90.13;98759.38;5020444;28;20427;-49
2023/08/03 06:38:12;;;;;;;0.40;0.20;;;;;;;18.93;90.38;98758.00;5006350;28;20479;-49
2023/08/03 06:40:40;;;;;;;0.40;0.20;;;;;;;18.96;90.31;98760.41;5000209;28;20445;-49
2023/08/03 06:43:08;;;;;;;0.40;0.20;;;;;;;19.02;89.76;98762.56;5013260;28;20982;-50
2023/08/03 06:45:34;;;;;;;0.40;0.20;;;;;;;18.88;90.28;98771.00;5013294;28;20422;-49
2023/08/03 06:48:02;;;;;;;0.40;0.20;;;;;;;19.03;89.62;98761.56;5013318;28;20431;-49
2023/08/03 06:50:31;;;;;;;0.40;0.20;;;;;;;19.00;90.18;98769.91;5013135;28;20492;-48
2023/08/03 06:52:59;;;;;;;0.40;0.20;;;;;;;19.04;89.91;98775.88;5013127;28;20507;-49
2023/08/03 06:55:26;;;;;;;0.40;0.20;;;;;;;19.03;89.40;98772.34;5013269;28;20464;-49
2023/08/03 06:57:53;;;;;;;0.40;0.20;;;;;;;19.09;89.58;98787.97;5012808;28;20514;-49
2023/08/03 07:00:20;;;;;;;0.40;0.20;;;;;;;18.88;90.09;98792.53;5013155;28;20430;-48
2023/08/03 07:02:47;;;;;;;0.40;0.20;;;;;;;19.02;89.77;98792.19;5013134;28;20457;-49
2023/08/03 07:05:14;;;;;;;0.40;0.20;;;;;;;19.01;90.00;98793.16;5013217;28;20448;-49
2023/08/03 07:07:41;;;;;;;0.40;0.20;;;;;;;19.06;90.23;98793.63;5012956;28;20875;-49
2023/08/03 07:10:08;;;;;;;0.40;0.20;;;;;;;19.26;89.56;98791.88;5003811;28;20544;-49
2023/08/03 07:12:35;;;;;;;0.40;0.20;;;;;;;19.11;90.25;98801.31;5009057;28;20429;-49
2023/08/03 07:15:02;;;;;;;0.40;0.20;;;;;;;19.20;90.08;98793.28;5013034;28;20433;-49
2023/08/03 07:17:29;;;;;;;0.40;0.20;;;;;;;19.42;89.76;98804.84;5012760;28;20519;-49
2023/08/03 07:19:55;;;;;;;0.40;0.20;;;;;;;19.19;90.26;98801.50;5012712;28;20477;-49
2023/08/03 07:22:22;;;;;;;0.40;0.20;;;;;;;19.03;89.64;98803.81;5012690;28;20916;-49
2023/08/03 07:24:49;;;;;;;0.40;0.20;;;;;;;19.11;90.52;98801.31;5012740;28;20426;-49
2023/08/03 07:27:16;;;;;;;0.40;0.20;;;;;;;19.21;89.79;98804.91;5012344;28;20487;-49
2023/08/03 07:29:43;;;;;;;0.40;0.20;;;;;;;19.35;89.28;98801.84;5012760;28;20985;-49
2023/08/03 07:32:11;;;;;;;0.40;0.20;;;;;;;19.36;88.47;98805.38;5012735;28;20453;-49
2023/08/03 07:34:38;;;;;;;0.40;0.20;;;;;;;19.40;88.87;98804.13;5021918;28;20856;-49
2023/08/03 07:37:05;;;;;;;0.40;0.20;;;;;;;19.63;87.82;98810.19;5002500;28;20428;-50
2023/08/03 07:39:32;;;;;;;0.40;0.20;;;;;;;19.67;87.38;98796.28;5002252;28;20448;-49
2023/08/03 07:41:58;;;;;;;0.40;0.20;;;;;;;19.70;87.14;98800.56;5009724;28;20458;-49
2023/08/03 07:44:25;;;;;;;0.40;0.20;;;;;;;19.70;87.33;98806.81;5012764;28;20477;-49
2023/08/03 07:47:11;;;;;;;0.40;0.20;;;;;;;19.73;86.64;98798.44;5012519;28;20845;-49
2023/08/03 07:49:38;;;;;;;0.40;0.20;;;;;;;19.66;86.61;98810.78;5007706;28;21032;-49
2023/08/03 07:52:05;;;;;;;0.40;0.20;;;;;;;19.76;86.43;98822.44;4999478;28;20452;-50
2023/08/03 07:54:31;;;;;;;0.40;0.20;;;;;;;19.99;86.00;98822.19;5012281;28;20523;-49
2023/08/03 07:56:58;;;;;;;0.40;0.20;;;;;;;19.82;87.00;98813.78;5012692;28;20423;-49
2023/08/03 07:59:24;;;;;;;0.40;0.20;;;;;;;19.91;86.37;98820.19;5012283;28;20896;-49
2023/08/03 08:01:50;;;;;;;0.40;0.20;;;;;;;20.00;86.68;98824.75;5012462;28;20449;-49
2023/08/03 08:04:18;;;;;;;0.40;0.20;;;;;;;20.20;86.13;98819.38;5012699;28;20423;-49
2023/08/03 08:06:45;;;;;;;0.40;0.20;;;;;;;20.53;85.30;98818.13;5012445;28;20871;-49
2023/08/03 08:09:11;;;;;;;0.40;0.20;;;;;;;20.93;83.46;98812.53;5011274;28;20477;-49
2023/08/03 08:11:38;;;;;;;0.40;0.20;;;;;;;20.98;83.29;98813.81;5000046;28;20467;-49
2023/08/03 08:14:04;;;;;;;0.40;0.20;;;;;;;21.11;82.31;98810.81;5012052;28;20514;-49
2023/08/03 08:16:31;;;;;;;0.40;0.20;;;;;;;21.02;82.60;98810.81;5012132;28;20790;-49
2023/08/03 08:18:57;;;;;;;0.40;0.20;;;;;;;21.36;80.77;98814.69;5011824;28;20448;-49
2023/08/03 08:21:24;;;;;;;0.40;0.20;;;;;;;21.18;81.46;98825.41;5011961;28;20935;-49
2023/08/03 08:23:50;;;;;;;0.40;0.20;;;;;;;20.93;81.87;98842.25;5011943;28;20917;-49
2023/08/03 08:26:18;;;;;;;0.40;0.20;;;;;;;20.70;82.32;98837.19;5012236;28;20427;-49
2023/08/03 08:28:46;;;;;;;0.40;0.20;;;;;;;20.56;84.48;98836.75;5005334;28;20976;-48
2023/08/03 08:31:28;;;;;;;0.40;0.20;;;;;;;20.29;84.75;98840.16;5007445;28;20494;-49
2023/08/03 08:34:14;;;;;;;0.40;0.20;;;;;;;20.15;86.00;98851.31;5010426;28;20448;-49
2023/08/03 08:36:41;;;;;;;0.40;0.20;;;;;;;20.07;86.33;98860.97;5008712;28;20869;-50
2023/08/03 08:39:07;;;;;;;0.40;0.20;;;;;;;20.41;85.33;98858.75;5009042;28;20564;-49
2023/08/03 08:41:39;;;;;;;0.40;0.20;;;;;;;20.45;85.13;98864.75;5009131;28;20449;-49
2023/08/03 08:44:06;;;;;;;0.40;0.20;;;;;;;20.89;83.99;98866.00;5015625;28;20455;-49
2023/08/03 08:46:32;;;;;;;0.40;0.20;;;;;;;20.94;83.31;98858.31;5015356;28;20502;-49
2023/08/03 08:48:59;;;;;;;0.40;0.20;;;;;;;20.96;83.83;98864.41;5015657;28;20910;-49
2023/08/03 08:51:26;;;;;;;0.40;0.20;;;;;;;21.07;83.39;98862.56;5015330;28;20547;-49
2023/08/03 08:53:56;;;;;;;0.40;0.20;;;;;;;21.15;83.59;98871.66;5015492;28;20423;-49
2023/08/03 08:56:25;;;;;;;0.40;0.20;;;;;;;20.99;83.31;98876.81;5015195;28;20438;-49
2023/08/03 08:58:55;;;;;;;0.40;0.20;;;;;;;20.98;83.41;98875.09;5015205;28;20526;-49
2023/08/03 09:01:24;;;;;;;0.40;0.20;;;;;;;21.21;82.61;98878.31;5015172;28;20530;-49
2023/08/03 09:03:52;;;;;;;0.40;0.20;;;;;;;20.91;83.64;98882.91;5015314;28;20435;-49
2023/08/03 09:06:22;;;;;;;0.40;0.20;;;;;;;21.06;84.17;98894.13;5015519;28;20423;-49
2023/08/03 09:08:55;;;;;;;0.40;0.20;;;;;;;21.07;83.81;98890.44;5015081;28;20497;-49
2023/08/03 09:11:40;;;;;;;0.40;0.20;;;;;;;20.86;83.95;98885.22;5001876;28;20545;-49
2023/08/03 09:14:08;;;;;;;0.40;0.20;;;;;;;20.89;84.08;98892.19;5013932;28;20448;-49
2023/08/03 09:16:35;;;;;;;0.40;0.20;;;;;;;20.88;83.39;98896.72;5014916;28;20450;-49
2023/08/03 09:19:02;;;;;;;0.40;0.20;;;;;;;20.93;84.16;98899.84;5014825;28;20447;-49
2023/08/03 09:21:28;;;;;;;0.40;0.20;;;;;;;20.69;84.51;98894.00;5014847;28;20489;-49
2023/08/03 09:23:59;;;;;;;0.40;0.20;;;;;;;21.05;84.12;98897.84;5014661;28;20506;-49
2023/08/03 09:26:29;;;;;;;0.40;0.20;;;;;;;20.90;84.15;98901.97;5014833;28;20449;-49
2023/08/03 09:28:58;;;;;;;0.40;0.20;;;;;;;20.92;84.20;98914.34;5011516;28;20481;-49
2023/08/03 09:31:29;;;;;;;0.40;0.20;;;;;;;21.11;82.81;98904.53;5005535;28;20520;-49
2023/08/03 09:33:58;;;;;;;0.40;0.20;;;;;;;21.17;83.03;98912.03;5018623;28;20857;-49
2023/08/03 09:36:26;;;;;;;0.40;0.20;;;;;;;21.31;84.14;98914.31;5011937;28;20874;-49
2023/08/03 09:39:16;;;;;;;0.40;0.20;;;;;;;21.74;81.80;98915.63;5008241;28;20470;-49
2023/08/03 09:41:47;;;;;;;0.40;0.20;;;;;;;21.52;81.57;98923.09;5005427;28;20992;-49
2023/08/03 09:44:17;;;;;;;0.40;0.20;;;;;;;21.66;82.15;98937.16;5005859;28;20429;-49
2023/08/03 09:46:47;;;;;;;0.40;0.20;;;;;;;21.62;81.59;98930.31;5001082;28;20465;-49
2023/08/03 09:49:14;;;;;;;0.40;0.20;;;;;;;21.22;84.40;98945.75;5014575;28;20497;-49
2023/08/03 09:51:43;;;;;;;0.40;0.20;;;;;;;21.20;85.12;98946.88;5014308;28;20493;-49
2023/08/03 09:54:21;;;;;;;0.40;0.20;;;;;;;20.96;85.81;98952.72;5014530;28;20453;-49
2023/08/03 09:56:52;;;;;;;0.40;0.20;;;;;;;21.14;85.73;98953.72;5014357;28;20448;-49
2023/08/03 09:59:43;;;;;;;0.40;0.20;;;;;;;20.85;85.33;98947.50;5014201;28;20443;-49
2023/08/03 10:02:17;;;;;;;0.40;0.20;;;;;;;20.92;85.98;98946.75;5014126;28;20921;-49
2023/08/03 10:04:54;;;;;;;0.40;0.20;;;;;;;21.23;83.56;98963.66;5014036;28;20459;-49
2023/08/03 10:07:25;;;;;;;0.40;0.20;;;;;;;20.81;84.41;98967.66;5014103;28;20444;-49
2023/08/03 10:09:57;;;;;;;0.40;0.20;;;;;;;20.95;84.62;98967.22;5008072;28;20470;-49
2023/08/03 10:12:33;;;;;;;0.40;0.20;;;;;;;20.99;85.71;98969.53;5007553;28;20445;-49
2023/08/03 10:15:00;;;;;;;0.40;0.20;;;;;;;21.14;84.68;98953.72;5013852;28;20952;-49
2023/08/03 10:17:28;;;;;;;0.40;0.20;;;;;;;21.39;83.57;98970.38;5013900;28;20427;-49
2023/08/03 10:19:56;;;;;;;0.40;0.20;;;;;;;21.49;82.74;98974.75;5013629;28;20982;-49
2023/08/03 10:22:23;;;;;;;0.40;0.20;;;;;;;21.28;83.26;98977.66;5013424;28;20456;-49
2023/08/03 10:25:18;;;;;;;0.40;0.20;;;;;;;21.01;84.42;98988.31;5014079;28;20543;-49
2023/08/03 10:28:11;;;;;;;0.40;0.20;;;;;;;21.21;84.34;98986.44;5013447;28;20449;-49
2023/08/03 10:31:07;;;;;;;0.40;0.20;;;;;;;21.03;85.71;98990.84;5013478;28;20543;-49
2023/08/03 10:33:51;;;;;;;0.40;0.20;;;;;;;20.90;86.80;98994.69;5014932;28;20514;-49
2023/08/03 10:36:27;;;;;;;0.40;0.20;;;;;;;21.12;85.76;98990.00;5012600;28;20512;-49
2023/08/03 10:38:55;;;;;;;0.40;0.20;;;;;;;21.23;85.83;98989.84;5006734;28;20506;-49
2023/08/03 10:41:22;;;;;;;0.40;0.20;;;;;;;21.36;85.38;98993.13;5006042;28;20459;-49
2023/08/03 10:44:13;;;;;;;0.40;0.20;;;;;;;21.75;84.37;98993.06;5013559;28;20448;-49
2023/08/03 10:46:41;;;;;;;0.40;0.20;;;;;;;21.96;82.74;98991.03;5013295;28;20446;-49
2023/08/03 10:49:17;;;;;;;0.40;0.20;;;;;;;21.74;82.92;98985.94;5013239;28;20526;-50
2023/08/03 10:51:49;;;;;;;0.40;0.20;;;;;;;22.00;82.20;98978.03;5012906;28;20492;-49
2023/08/03 10:54:19;;;;;;;0.40;0.20;;;;;;;21.93;80.99;98980.50;5013575;28;20535;-49
2023/08/03 10:57:05;;;;;;;0.40;0.20;;;;;;;22.09;79.36;98985.31;5013188;28;20566;-49
2023/08/03 10:59:49;;;;;;;0.40;0.20;;;;;;;22.03;79.63;98977.72;5012921;28;20461;-49
2023/08/03 11:02:29;;;;;;;0.40;0.20;;;;;;;22.19;80.10;98977.97;5013070;28;21005;-49
2023/08/03 11:05:05;;;;;;;0.40;0.20;;;;;;;22.34;79.58;98987.31;5012981;28;20487;-49
2023/08/03 11:07:36;;;;;;;0.40;0.20;;;;;;;22.07;78.50;98981.91;5013245;28;20456;-49
2023/08/03 11:10:12;;;;;;;0.40;0.20;;;;;;;22.20;78.54;98995.91;5005112;28;20505;-49
2023/08/03 11:12:40;;;;;;;0.40;0.20;;;;;;;22.44;78.31;98995.38;5008796;28;20531;-49
2023/08/03 11:15:08;;;;;;;0.40;0.20;;;;;;;22.59;78.38;99006.56;5013042;28;20459;-49
2023/08/03 11:17:36;;;;;;;0.40;0.20;;;;;;;22.59;78.52;99001.97;5012824;28;20968;-49
2023/08/03 11:20:05;;;;;;;0.50;0.20;;;;;;;22.46;77.55;99010.47;5012952;28;20455;-49
2023/08/03 11:22:32;;;;;;;0.40;0.20;;;;;;;22.38;78.94;99002.25;5012585;28;20448;-49
2023/08/03 11:25:03;;;;;;;0.40;0.20;;;;;;;22.65;78.25;99014.94;5012969;28;20444;-49
2023/08/03 11:27:30;;;;;;;0.40;0.20;;;;;;;22.42;78.86;99019.91;5012522;28;20854;-49
2023/08/03 11:29:57;;;;;;;0.50;0.20;;;;;;;22.80;77.29;99023.41;5012491;28;20508;-49
2023/08/03 11:32:29;;;;;;;0.40;0.20;;;;;;;22.94;77.12;99013.94;5012631;28;20503;-49
2023/08/03 11:35:03;;;;;;;0.40;0.20;;;;;;;22.82;78.81;99018.69;5024954;28;20443;-49
2023/08/03 11:37:30;;;;;;;0.50;0.20;;;;;;;23.09;77.50;99006.97;4993329;28;20448;-49